Temp: 3.0°C   Baro: 999.4mb
  Wind: 9.0mph   Dir: NW (323°)
  Rain: 0.0mm (0.0mm/hr)
  Solar: 0W/m2  Hum: 81%
 
Bath Spa Weather Historical Data
Daily Summary for December 11, 2019 Units:  Metric    English   Both
Next Day »
Daily Weekly Monthly Yearly Custom
  High: Low: Average:
Temperature: 7.7 °C 1.2 °C 4.7 °C
Dew Point: 4.9 °C 0.2 °C 3 °C
Humidity: 94% 80% 89%
Wind Speed: 35.4km/h 0.0km/h 4.4km/h
Wind Gust: 38.6km/h - -
Wind direction- - WSW
Pressure: 1008.4 hPa 1000.6 hPa -
Precipitation: 1.5 mm    
Historical Graphs
 
 
Tabular Data for December 11, 2019
Time Temperature Dew Point Pressure Wind direction Wind Speed Wind Gust Humidity Rainfall Rate (Hourly) solar
00:00 6.1 °C 4.7 °C 1008.4 hPa Calm   1.6 km/h 91% 0.3 mm 0.00 W/m2
00:05 6.2 °C 4.8 °C 1008.4 hPa Calm   6.4 km/h 91% 0.3 mm 0.00 W/m2
00:10 6.2 °C 4.8 °C 1008.4 hPa West 3.2 km/h 8.0 km/h 91% 0.3 mm 0.00 W/m2
00:16 6.3 °C 4.9 °C 1008.4 hPa WSW 6.4 km/h 8.0 km/h 91% 0.3 mm 0.00 W/m2
00:20 6.3 °C 4.8 °C 1008.0 hPa WSW 7.9 km/h 9.7 km/h 90% 0.3 mm 0.00 W/m2
00:25 6.4 °C 4.9 °C 1008.4 hPa WSW 7.9 km/h 8.0 km/h 90% 0.3 mm 0.00 W/m2
00:30 6.4 °C 4.9 °C 1008.4 hPa West 4.7 km/h 11.3 km/h 90% 0.3 mm 0.00 W/m2
00:35 6.4 °C 4.7 °C 1008.4 hPa West 1.4 km/h 9.7 km/h 89% 0.3 mm 0.00 W/m2
00:40 6.3 °C 4.6 °C 1008.4 hPa West 4.7 km/h 6.4 km/h 89% 0.3 mm 0.00 W/m2
00:45 6.2 °C 4.5 °C 1008.4 hPa West 3.2 km/h 4.8 km/h 89% 0.3 mm 0.00 W/m2
00:50 6.1 °C 4.4 °C 1008.4 hPa Calm   1.6 km/h 89% 0.0 mm 0.00 W/m2
00:55 5.9 °C 4.2 °C 1008.4 hPa West 3.2 km/h 6.4 km/h 89% 0.0 mm 0.00 W/m2
01:00 5.8 °C 4.1 °C 1008.4 hPa West 1.4 km/h 4.8 km/h 89% 0.0 mm 0.00 W/m2
01:05 5.8 °C 4.1 °C 1008.4 hPa Calm   1.6 km/h 89% 0.0 mm 0.00 W/m2
01:10 5.7 °C 4.0 °C 1008.4 hPa West 3.2 km/h 3.2 km/h 89% 0.0 mm 0.00 W/m2
01:15 5.6 °C 3.9 °C 1008.4 hPa Calm   4.8 km/h 89% 0.0 mm 0.00 W/m2
01:20 5.6 °C 3.9 °C 1008.4 hPa Calm   1.6 km/h 89% 0.0 mm 0.00 W/m2
01:25 5.5 °C 4.0 °C 1008.4 hPa West 4.7 km/h 9.7 km/h 90% 0.0 mm 0.00 W/m2
01:30 5.6 °C 4.1 °C 1008.4 hPa Calm   4.8 km/h 90% 0.0 mm 0.00 W/m2
01:35 5.5 °C 4.0 °C 1008.4 hPa Calm     90% 0.0 mm 0.00 W/m2
01:40 5.4 °C 3.9 °C 1008.4 hPa West 3.2 km/h 9.7 km/h 90% 0.0 mm 0.00 W/m2
01:45 5.4 °C 3.9 °C 1008.4 hPa West 1.4 km/h 3.2 km/h 90% 0.0 mm 0.00 W/m2
01:50 5.5 °C 4.0 °C 1008.4 hPa Calm     90% 0.0 mm 0.00 W/m2
01:55 5.4 °C 3.9 °C 1008.4 hPa Calm     90% 0.0 mm 0.00 W/m2
02:00 5.4 °C 3.9 °C 1008.4 hPa Calm     90% 0.0 mm 0.00 W/m2
02:05 5.3 °C 3.8 °C 1008.4 hPa Calm     90% 0.0 mm 0.00 W/m2
02:10 5.2 °C 3.7 °C 1008.4 hPa Calm     90% 0.0 mm 0.00 W/m2
02:15 5.1 °C 3.6 °C 1008.4 hPa Calm     90% 0.0 mm 0.00 W/m2
02:20 4.8 °C 3.3 °C 1008.4 hPa Calm     90% 0.0 mm 0.00 W/m2
02:25 4.7 °C 3.2 °C 1008.4 hPa Calm     90% 0.0 mm 0.00 W/m2
02:30 4.6 °C 3.1 °C 1008.4 hPa Calm   1.6 km/h 90% 0.0 mm 0.00 W/m2
02:35 4.4 °C 2.9 °C 1008.4 hPa Calm     90% 0.0 mm 0.00 W/m2
02:40 4.4 °C 3.1 °C 1008.4 hPa West 4.7 km/h 6.4 km/h 91% 0.0 mm 0.00 W/m2
02:45 4.4 °C 3.1 °C 1008.4 hPa West 1.4 km/h 6.4 km/h 91% 0.0 mm 0.00 W/m2
02:50 4.4 °C 3.1 °C 1008.4 hPa Calm   4.8 km/h 91% 0.0 mm 0.00 W/m2
02:55 4.3 °C 3.0 °C 1008.4 hPa West 3.2 km/h 3.2 km/h 91% 0.0 mm 0.00 W/m2
03:00 4.3 °C 3.0 °C 1008.4 hPa West 3.2 km/h 3.2 km/h 91% 0.0 mm 0.00 W/m2
03:05 4.2 °C 2.9 °C 1008.4 hPa West 1.4 km/h 1.6 km/h 91% 0.0 mm 0.00 W/m2
03:10 4.3 °C 3.0 °C 1008.4 hPa West 1.4 km/h 4.8 km/h 91% 0.0 mm 0.00 W/m2
03:15 4.2 °C 3.0 °C 1008.4 hPa Calm   4.8 km/h 92% 0.0 mm 0.00 W/m2
03:20 4.1 °C 2.9 °C 1008.4 hPa Calm   1.6 km/h 92% 0.0 mm 0.00 W/m2
03:25 4.1 °C 2.9 °C 1008.4 hPa Calm   3.2 km/h 92% 0.0 mm 0.00 W/m2
03:30 4.0 °C 2.8 °C 1008.4 hPa West 1.4 km/h 1.6 km/h 92% 0.0 mm 0.00 W/m2
03:35 4.1 °C 2.9 °C 1008.0 hPa Calm   1.6 km/h 92% 0.0 mm 0.00 W/m2
03:40 4.2 °C 3.0 °C 1008.0 hPa West 4.7 km/h 6.4 km/h 92% 0.0 mm 0.00 W/m2
03:45 4.2 °C 3.0 °C 1008.0 hPa West 3.2 km/h 6.4 km/h 92% 0.0 mm 0.00 W/m2
03:50 4.3 °C 3.1 °C 1008.0 hPa Calm   6.4 km/h 92% 0.0 mm 0.00 W/m2
03:55 4.4 °C 3.2 °C 1008.0 hPa Calm   4.8 km/h 92% 0.0 mm 0.00 W/m2
04:00 4.4 °C 3.2 °C 1008.0 hPa Calm   6.4 km/h 92% 0.0 mm 0.00 W/m2
04:05 4.3 °C 3.1 °C 1008.0 hPa West 1.4 km/h 1.6 km/h 92% 0.0 mm 0.00 W/m2
04:10 4.3 °C 3.1 °C 1007.7 hPa Calm   4.8 km/h 92% 0.0 mm 0.00 W/m2
04:15 4.3 °C 3.1 °C 1007.7 hPa Calm   9.7 km/h 92% 0.0 mm 0.00 W/m2
04:20 4.2 °C 3.0 °C 1008.0 hPa West 4.7 km/h 6.4 km/h 92% 0.0 mm 0.00 W/m2
04:25 4.2 °C 3.0 °C 1007.7 hPa Calm   3.2 km/h 92% 0.0 mm 0.00 W/m2
04:30 4.2 °C 3.0 °C 1007.7 hPa West 3.2 km/h 3.2 km/h 92% 0.0 mm 0.00 W/m2
04:35 4.2 °C 3.0 °C 1007.7 hPa West 4.7 km/h 4.8 km/h 92% 0.0 mm 0.00 W/m2
04:40 4.3 °C 3.1 °C 1007.7 hPa WSW 7.9 km/h 8.0 km/h 92% 0.0 mm 0.00 W/m2
04:45 4.3 °C 3.1 °C 1007.3 hPa SW 1.4 km/h 4.8 km/h 92% 0.0 mm 0.00 W/m2
04:51 4.3 °C 3.1 °C 1007.3 hPa Calm     92% 0.0 mm 0.00 W/m2
04:55 4.2 °C 3.0 °C 1007.3 hPa Calm   1.6 km/h 92% 0.0 mm 0.00 W/m2
05:00 4.2 °C 3.0 °C 1007.3 hPa SW 4.7 km/h 6.4 km/h 92% 0.0 mm 0.00 W/m2
05:05 4.2 °C 3.0 °C 1007.3 hPa SW 4.7 km/h 8.0 km/h 92% 0.0 mm 0.00 W/m2
05:10 4.3 °C 3.1 °C 1007.3 hPa Calm   3.2 km/h 92% 0.0 mm 0.00 W/m2
05:15 4.2 °C 3.0 °C 1007.0 hPa Calm   4.8 km/h 92% 0.0 mm 0.00 W/m2
05:20 4.2 °C 3.0 °C 1007.0 hPa SW 6.4 km/h 6.4 km/h 92% 0.0 mm 0.00 W/m2
05:25 4.3 °C 3.1 °C 1007.0 hPa WSW 1.4 km/h 6.4 km/h 92% 0.0 mm 0.00 W/m2
05:31 4.3 °C 3.0 °C 1007.0 hPa WSW 1.4 km/h 4.8 km/h 91% 0.0 mm 0.00 W/m2
05:35 4.3 °C 3.0 °C 1007.0 hPa WSW 4.7 km/h 6.4 km/h 91% 0.0 mm 0.00 W/m2
05:40 4.2 °C 2.9 °C 1006.7 hPa WSW 3.2 km/h 6.4 km/h 91% 0.0 mm 0.00 W/m2
05:45 4.2 °C 2.9 °C 1006.7 hPa WSW 1.4 km/h 4.8 km/h 91% 0.0 mm 0.00 W/m2
05:50 4.2 °C 2.9 °C 1006.7 hPa Calm   3.2 km/h 91% 0.0 mm 0.00 W/m2
05:55 4.2 °C 2.9 °C 1006.7 hPa Calm   6.4 km/h 91% 0.0 mm 0.00 W/m2
06:00 4.2 °C 2.9 °C 1006.3 hPa WSW 8.0 km/h 8.0 km/h 91% 0.0 mm 0.00 W/m2
06:05 4.4 °C 3.1 °C 1006.3 hPa WSW 3.2 km/h 9.7 km/h 91% 0.0 mm 0.00 W/m2
06:10 4.8 °C 3.5 °C 1006.3 hPa SSW 13.0 km/h 16.1 km/h 91% 0.0 mm 0.00 W/m2
06:15 4.9 °C 3.6 °C 1006.3 hPa SW 11.1 km/h 11.3 km/h 91% 0.0 mm 0.00 W/m2
06:20 4.9 °C 3.6 °C 1006.3 hPa SSW 4.7 km/h 12.9 km/h 91% 0.0 mm 0.00 W/m2
06:26 5.0 °C 3.7 °C 1006.3 hPa SW 4.7 km/h 8.0 km/h 91% 0.0 mm 0.00 W/m2
06:30 5.1 °C 3.6 °C 1006.3 hPa SSW 4.7 km/h 11.3 km/h 90% 0.0 mm 0.00 W/m2
06:35 5.1 °C 3.6 °C 1006.0 hPa SSW 4.7 km/h 11.3 km/h 90% 0.0 mm 0.00 W/m2
06:40 5.0 °C 3.5 °C 1006.0 hPa SSW 6.4 km/h 11.3 km/h 90% 0.0 mm 0.00 W/m2
06:45 5.0 °C 3.3 °C 1005.6 hPa South 6.4 km/h 17.7 km/h 89% 0.0 mm 0.00 W/m2
06:50 5.1 °C 3.4 °C 1006.0 hPa SW 9.7 km/h 12.9 km/h 89% 0.0 mm 0.00 W/m2
06:55 5.1 °C 3.4 °C 1006.0 hPa SSW 7.9 km/h 11.3 km/h 89% 0.0 mm 0.00 W/m2
07:00 5.1 °C 3.4 °C 1006.0 hPa SSW 6.4 km/h 16.1 km/h 89% 0.0 mm 0.00 W/m2
07:05 5.0 °C 3.3 °C 1006.0 hPa South 7.9 km/h 19.3 km/h 89% 0.0 mm 0.00 W/m2
07:10 4.9 °C 3.2 °C 1006.0 hPa South 4.7 km/h 16.1 km/h 89% 0.0 mm 0.00 W/m2
07:15 4.9 °C 3.2 °C 1006.0 hPa SSW 9.7 km/h 11.3 km/h 89% 0.0 mm 0.00 W/m2
07:20 5.1 °C 3.4 °C 1005.6 hPa South 3.2 km/h 14.5 km/h 89% 0.0 mm 0.00 W/m2
07:25 5.1 °C 3.4 °C 1005.6 hPa SSW 6.4 km/h 11.3 km/h 89% 0.0 mm 0.00 W/m2
07:30 5.1 °C 3.4 °C 1005.6 hPa SSW 11.1 km/h 11.3 km/h 89% 0.0 mm 0.00 W/m2
07:35 5.1 °C 3.4 °C 1005.6 hPa Calm   29.0 km/h 89% 0.0 mm 0.00 W/m2
07:40 5.2 °C 3.5 °C 1005.6 hPa SSW 11.1 km/h 14.5 km/h 89% 0.0 mm 0.00 W/m2
07:45 5.1 °C 3.3 °C 1005.6 hPa South 6.4 km/h 9.7 km/h 88% 0.0 mm 0.00 W/m2
07:50 5.1 °C 3.3 °C 1005.6 hPa Calm   6.4 km/h 88% 0.0 mm 0.00 W/m2
07:55 5.1 °C 3.3 °C 1005.6 hPa Calm   11.3 km/h 88% 0.0 mm 0.00 W/m2
08:00 5.1 °C 3.3 °C 1005.6 hPa Calm   8.0 km/h 88% 0.0 mm 0.00 W/m2
08:05 5.1 °C 3.3 °C 1005.6 hPa Calm   12.9 km/h 88% 0.0 mm 5.00 W/m2
08:11 5.1 °C 3.3 °C 1005.3 hPa Calm   14.5 km/h 88% 0.0 mm 7.00 W/m2
08:15 5.1 °C 3.3 °C 1005.3 hPa Calm   1.6 km/h 88% 0.0 mm 9.00 W/m2
08:20 4.9 °C 3.1 °C 1005.3 hPa South 4.7 km/h 4.8 km/h 88% 0.0 mm 11.00 W/m2
08:25 4.8 °C 3.0 °C 1005.3 hPa South 4.7 km/h 4.8 km/h 88% 0.0 mm 12.00 W/m2
08:30 4.7 °C 2.9 °C 1005.3 hPa Calm   1.6 km/h 88% 0.0 mm 12.00 W/m2
08:35 4.7 °C 2.9 °C 1005.3 hPa South 1.4 km/h 1.6 km/h 88% 0.0 mm 14.00 W/m2
08:40 4.8 °C 3.0 °C 1005.0 hPa Calm   4.8 km/h 88% 0.0 mm 16.00 W/m2
08:45 5.0 °C 3.2 °C 1005.0 hPa SW 4.7 km/h 12.9 km/h 88% 0.0 mm 25.00 W/m2
08:50 5.1 °C 3.3 °C 1005.0 hPa SW 6.4 km/h 8.0 km/h 88% 0.0 mm 32.00 W/m2
08:55 5.2 °C 3.4 °C 1004.6 hPa SSW 6.4 km/h 12.9 km/h 88% 0.0 mm 42.00 W/m2
09:00 5.3 °C 3.3 °C 1004.6 hPa SSW 17.7 km/h 17.7 km/h 87% 0.0 mm 54.00 W/m2
09:05 5.5 °C 3.5 °C 1004.6 hPa SSW 11.1 km/h 16.1 km/h 87% 0.0 mm 49.00 W/m2
09:10 5.7 °C 3.7 °C 1004.6 hPa Calm   4.8 km/h 87% 0.0 mm 33.00 W/m2
09:15 5.8 °C 3.6 °C 1004.6 hPa SSW 6.4 km/h 11.3 km/h 86% 0.0 mm 33.00 W/m2
09:20 5.9 °C 3.7 °C 1004.6 hPa SSW 13.0 km/h 12.9 km/h 86% 0.0 mm 39.00 W/m2
09:25 6.0 °C 3.7 °C 1004.6 hPa SW 6.4 km/h 16.1 km/h 85% 0.0 mm 35.00 W/m2
09:30 6.0 °C 3.7 °C 1004.6 hPa South 1.4 km/h 9.7 km/h 85% 0.0 mm 37.00 W/m2
09:35 6.1 °C 3.8 °C 1004.6 hPa Calm   3.2 km/h 85% 0.0 mm 37.00 W/m2
09:40 6.0 °C 3.5 °C 1004.6 hPa SSW 7.9 km/h 8.0 km/h 84% 0.0 mm 37.00 W/m2
09:45 6.1 °C 3.6 °C 1004.3 hPa WSW 14.3 km/h 17.7 km/h 84% 0.0 mm 62.00 W/m2
09:50 6.3 °C 3.6 °C 1004.3 hPa SW 9.7 km/h 16.1 km/h 83% 0.0 mm 58.00 W/m2
09:55 6.6 °C 3.9 °C 1004.3 hPa Calm     83% 0.0 mm 49.00 W/m2
10:00 6.9 °C 4.2 °C 1003.9 hPa SE 6.4 km/h 9.7 km/h 83% 0.0 mm 67.00 W/m2
10:05 6.8 °C 3.9 °C 1003.9 hPa South 13.0 km/h 16.1 km/h 82% 0.0 mm 69.00 W/m2
10:10 7.0 °C 4.1 °C 1003.6 hPa Calm   4.8 km/h 82% 0.0 mm 62.00 W/m2
10:15 7.1 °C 4.2 °C 1003.6 hPa SW 7.9 km/h 9.7 km/h 82% 0.0 mm 69.00 W/m2
10:20 7.1 °C 4.2 °C 1003.3 hPa SW 6.4 km/h 20.9 km/h 82% 0.0 mm 88.00 W/m2
10:25 7.2 °C 4.2 °C 1003.3 hPa SSW 14.3 km/h 19.3 km/h 81% 0.0 mm 113.00 W/m2
10:31 7.3 °C 4.3 °C 1003.3 hPa SW 9.7 km/h 14.5 km/h 81% 0.0 mm 125.00 W/m2
10:35 7.6 °C 4.5 °C 1002.9 hPa SW 4.7 km/h 14.5 km/h 81% 0.0 mm 135.00 W/m2
10:40 7.7 °C 4.6 °C 1002.9 hPa SSW 1.4 km/h 11.3 km/h 81% 0.0 mm 146.00 W/m2
10:45 7.7 °C 4.5 °C 1002.9 hPa SW 13.0 km/h 29.0 km/h 80% 0.0 mm 123.00 W/m2
10:50 7.7 °C 4.5 °C 1002.9 hPa SW 14.3 km/h 14.5 km/h 80% 0.0 mm 113.00 W/m2
10:55 7.7 °C 4.5 °C 1002.9 hPa SW 19.5 km/h 30.6 km/h 80% 0.0 mm 72.00 W/m2
11:00 7.5 °C 4.3 °C 1002.9 hPa SSW 9.7 km/h 17.7 km/h 80% 0.0 mm 51.00 W/m2
11:05 7.3 °C 4.1 °C 1002.6 hPa SW 17.7 km/h 19.3 km/h 80% 0.0 mm 62.00 W/m2
11:10 7.2 °C 4.2 °C 1002.3 hPa SW 14.3 km/h 19.3 km/h 81% 0.0 mm 77.00 W/m2
11:15 7.1 °C 4.1 °C 1002.3 hPa SW 35.4 km/h 35.4 km/h 81% 0.0 mm 79.00 W/m2
11:20 7.1 °C 4.1 °C 1002.3 hPa SW 6.4 km/h 17.7 km/h 81% 0.0 mm 47.00 W/m2
11:25 7.1 °C 4.1 °C 1002.3 hPa SW 6.4 km/h 12.9 km/h 81% 0.0 mm 39.00 W/m2
11:30 7.1 °C 4.1 °C 1002.3 hPa SW 9.7 km/h 9.7 km/h 81% 0.0 mm 46.00 W/m2
11:35 7.1 °C 4.1 °C 1002.3 hPa SSW 4.7 km/h 11.3 km/h 81% 0.0 mm 116.00 W/m2
11:40 7.1 °C 4.2 °C 1001.9 hPa South 1.4 km/h 19.3 km/h 82% 0.0 mm 105.00 W/m2
11:45 6.9 °C 4.0 °C 1001.9 hPa SW 9.7 km/h 37.0 km/h 82% 0.3 mm 130.00 W/m2
11:50 6.9 °C 4.2 °C 1001.9 hPa Calm   12.9 km/h 83% 0.3 mm 167.00 W/m2
11:56 6.8 °C 4.1 °C 1001.9 hPa SW 3.2 km/h 37.0 km/h 83% 0.3 mm 95.00 W/m2
12:00 6.8 °C 4.3 °C 1001.6 hPa SSW 7.9 km/h 14.5 km/h 84% 0.3 mm 102.00 W/m2
12:05 6.8 °C 4.3 °C 1001.2 hPa SSW 4.7 km/h 17.7 km/h 84% 0.3 mm 130.00 W/m2
12:10 6.9 °C 4.2 °C 1001.2 hPa SSW 1.4 km/h 8.0 km/h 83% 0.3 mm 137.00 W/m2
12:15 7.1 °C 4.6 °C 1000.9 hPa South 9.7 km/h 12.9 km/h 84% 0.3 mm 185.00 W/m2
12:20 7.3 °C 4.6 °C 1001.2 hPa SSW 9.7 km/h 19.3 km/h 83% 0.3 mm 213.00 W/m2
12:25 7.3 °C 4.6 °C 1001.2 hPa SSW 22.5 km/h 22.5 km/h 83% 0.3 mm 141.00 W/m2
12:30 7.3 °C 4.6 °C 1001.2 hPa SW 7.9 km/h 17.7 km/h 83% 0.3 mm 301.00 W/m2
12:35 7.6 °C 4.9 °C 1001.2 hPa SSW 9.7 km/h 24.1 km/h 83% 0.3 mm 116.00 W/m2
12:40 7.4 °C 4.7 °C 1001.2 hPa SSW 7.9 km/h 14.5 km/h 83% 0.3 mm 54.00 W/m2
12:45 7.2 °C 4.5 °C 1000.9 hPa SSW 3.2 km/h 16.1 km/h 83% 0.0 mm 151.00 W/m2
12:50 7.1 °C 4.4 °C 1000.9 hPa SW 7.9 km/h 33.8 km/h 83% 0.0 mm 118.00 W/m2
12:55 7.2 °C 4.5 °C 1000.9 hPa SW 4.7 km/h 24.1 km/h 83% 0.0 mm 62.00 W/m2
13:00 7.1 °C 4.4 °C 1000.9 hPa WSW 13.0 km/h 33.8 km/h 83% 0.0 mm 95.00 W/m2
13:05 7.1 °C 4.4 °C 1000.9 hPa SW 14.3 km/h 14.5 km/h 83% 0.0 mm 118.00 W/m2
13:10 7.1 °C 4.6 °C 1000.9 hPa WSW 7.9 km/h 25.7 km/h 84% 0.0 mm 109.00 W/m2
13:15 7.2 °C 4.5 °C 1000.6 hPa SW 17.7 km/h 19.3 km/h 83% 0.0 mm 127.00 W/m2
13:20 7.1 °C 4.4 °C 1000.6 hPa WSW 7.9 km/h 30.6 km/h 83% 0.0 mm 56.00 W/m2
13:25 7.1 °C 4.4 °C 1000.6 hPa SW 3.2 km/h 11.3 km/h 83% 0.0 mm 188.00 W/m2
13:30 7.3 °C 4.6 °C 1000.6 hPa WSW 9.7 km/h 17.7 km/h 83% 0.0 mm 134.00 W/m2
13:35 7.3 °C 4.4 °C 1000.6 hPa WSW 17.7 km/h 20.9 km/h 82% 0.0 mm 95.00 W/m2
13:40 7.3 °C 4.4 °C 1000.6 hPa SW 16.3 km/h 16.1 km/h 82% 0.0 mm 156.00 W/m2
13:45 7.3 °C 4.4 °C 1000.6 hPa WSW 9.7 km/h 12.9 km/h 82% 0.0 mm 58.00 W/m2
13:51 7.2 °C 4.2 °C 1000.6 hPa WSW 11.1 km/h 16.1 km/h 81% 0.0 mm 44.00 W/m2
13:55 7.1 °C 4.1 °C 1000.6 hPa WSW 19.3 km/h 19.3 km/h 81% 0.0 mm 37.00 W/m2
14:00 7.1 °C 4.2 °C 1000.6 hPa WSW 4.7 km/h 20.9 km/h 82% 0.0 mm 14.00 W/m2
14:05 6.8 °C 3.9 °C 1000.9 hPa West 17.7 km/h 32.2 km/h 82% 0.3 mm 18.00 W/m2
14:10 6.2 °C 3.7 °C 1000.9 hPa West 11.1 km/h 19.3 km/h 84% 0.3 mm 30.00 W/m2
14:15 5.9 °C 3.6 °C 1000.9 hPa West 9.7 km/h 30.6 km/h 85% 0.5 mm 25.00 W/m2
14:20 5.8 °C 3.6 °C 1000.9 hPa West 4.7 km/h 12.9 km/h 86% 0.5 mm 30.00 W/m2
14:25 5.8 °C 3.8 °C 1000.9 hPa WSW 14.5 km/h 14.5 km/h 87% 0.5 mm 46.00 W/m2
14:30 5.7 °C 3.7 °C 1001.2 hPa WSW 7.9 km/h 14.5 km/h 87% 0.5 mm 28.00 W/m2
14:35 5.7 °C 3.9 °C 1001.2 hPa Calm   9.7 km/h 88% 0.5 mm 35.00 W/m2
14:40 5.7 °C 3.9 °C 1001.2 hPa WSW 11.3 km/h 11.3 km/h 88% 0.5 mm 39.00 W/m2
14:45 5.7 °C 4.0 °C 1001.2 hPa West 4.7 km/h 8.0 km/h 89% 0.5 mm 16.00 W/m2
14:50 5.6 °C 3.9 °C 1001.2 hPa West 9.7 km/h 30.6 km/h 89% 0.5 mm 11.00 W/m2
14:55 5.2 °C 3.5 °C 1001.2 hPa WNW 35.2 km/h 38.6 km/h 89% 1.3 mm 12.00 W/m2
15:00 4.9 °C 3.2 °C 1001.2 hPa West 7.9 km/h 20.9 km/h 89% 1.3 mm 28.00 W/m2
15:05 4.9 °C 3.4 °C 1001.2 hPa West 4.7 km/h 11.3 km/h 90% 1.3 mm 28.00 W/m2
15:10 4.8 °C 3.3 °C 1001.2 hPa West 13.0 km/h 25.7 km/h 90% 1.0 mm 26.00 W/m2
15:15 4.8 °C 3.3 °C 1001.2 hPa West 7.9 km/h 16.1 km/h 90% 1.0 mm 26.00 W/m2
15:20 4.8 °C 3.3 °C 1001.2 hPa West 4.7 km/h 20.9 km/h 90% 1.0 mm 23.00 W/m2
15:25 4.7 °C 3.2 °C 1001.2 hPa West 6.4 km/h 17.7 km/h 90% 1.0 mm 11.00 W/m2
15:30 4.7 °C 3.4 °C 1001.2 hPa West 11.1 km/h 29.0 km/h 91% 1.0 mm 5.00 W/m2
15:35 4.7 °C 3.4 °C 1001.2 hPa WNW 7.9 km/h 12.9 km/h 91% 1.0 mm 7.00 W/m2
15:40 4.8 °C 3.5 °C 1001.2 hPa WNW 4.7 km/h 6.4 km/h 91% 0.8 mm 7.00 W/m2
15:45 4.7 °C 3.4 °C 1001.2 hPa WNW 4.7 km/h 9.7 km/h 91% 0.8 mm 11.00 W/m2
15:50 4.7 °C 3.4 °C 1001.2 hPa WNW 3.2 km/h 12.9 km/h 91% 0.5 mm 7.00 W/m2
15:55 4.7 °C 3.4 °C 1001.2 hPa WNW 9.7 km/h 12.9 km/h 91% 0.3 mm 5.00 W/m2
16:00 4.7 °C 3.4 °C 1001.2 hPa West 1.4 km/h 8.0 km/h 91% 0.3 mm 5.00 W/m2
16:05 4.7 °C 3.4 °C 1001.2 hPa West 3.2 km/h 8.0 km/h 91% 0.0 mm 0.00 W/m2
16:10 4.6 °C 3.3 °C 1001.6 hPa West 1.4 km/h 8.0 km/h 91% 0.0 mm 0.00 W/m2
16:15 4.5 °C 3.2 °C 1001.6 hPa West 7.9 km/h 8.0 km/h 91% 0.0 mm 0.00 W/m2
16:21 4.4 °C 3.1 °C 1001.6 hPa West 6.4 km/h 9.7 km/h 91% 0.0 mm 0.00 W/m2
16:25 4.3 °C 3.0 °C 1001.6 hPa West 4.7 km/h 8.0 km/h 91% 0.0 mm 0.00 W/m2
16:30 4.3 °C 3.0 °C 1001.6 hPa West 3.2 km/h 8.0 km/h 91% 0.0 mm 0.00 W/m2
16:35 4.2 °C 2.9 °C 1001.6 hPa West 3.2 km/h 8.0 km/h 91% 0.0 mm 0.00 W/m2
16:40 4.1 °C 2.8 °C 1001.9 hPa WNW 9.7 km/h 11.3 km/h 91% 0.0 mm 0.00 W/m2
16:45 4.1 °C 2.8 °C 1001.9 hPa WNW 3.2 km/h 8.0 km/h 91% 0.0 mm 0.00 W/m2
16:50 4.0 °C 2.7 °C 1001.9 hPa WNW 3.2 km/h 6.4 km/h 91% 0.0 mm 0.00 W/m2
16:55 4.0 °C 2.7 °C 1001.9 hPa WNW 4.7 km/h 8.0 km/h 91% 0.0 mm 0.00 W/m2
17:00 4.0 °C 2.7 °C 1001.9 hPa WNW 4.7 km/h 8.0 km/h 91% 0.0 mm 0.00 W/m2
17:05 3.9 °C 2.6 °C 1001.9 hPa WNW 3.2 km/h 6.4 km/h 91% 0.0 mm 0.00 W/m2
17:10 3.9 °C 2.7 °C 1002.3 hPa WNW 7.9 km/h 9.7 km/h 92% 0.0 mm 0.00 W/m2
17:15 3.9 °C 2.7 °C 1002.3 hPa WNW 6.4 km/h 11.3 km/h 92% 0.0 mm 0.00 W/m2
17:20 3.8 °C 2.6 °C 1002.3 hPa WNW 4.7 km/h 9.7 km/h 92% 0.0 mm 0.00 W/m2
17:25 3.8 °C 2.6 °C 1002.3 hPa WNW 3.2 km/h 6.4 km/h 92% 0.0 mm 0.00 W/m2
17:30 3.7 °C 2.5 °C 1002.3 hPa WNW 4.7 km/h 6.4 km/h 92% 0.0 mm 0.00 W/m2
17:35 3.7 °C 2.5 °C 1002.3 hPa WNW 6.4 km/h 8.0 km/h 92% 0.0 mm 0.00 W/m2
17:40 3.8 °C 2.6 °C 1002.3 hPa WNW 1.4 km/h 8.0 km/h 92% 0.0 mm 0.00 W/m2
17:45 3.8 °C 2.6 °C 1002.6 hPa WNW 1.4 km/h 3.2 km/h 92% 0.0 mm 0.00 W/m2
17:51 3.7 °C 2.5 °C 1002.6 hPa WNW 4.7 km/h 4.8 km/h 92% 0.0 mm 0.00 W/m2
17:55 3.6 °C 2.4 °C 1002.6 hPa WNW 3.2 km/h 9.7 km/h 92% 0.0 mm 0.00 W/m2
18:00 3.6 °C 2.4 °C 1002.6 hPa WNW 1.4 km/h 4.8 km/h 92% 0.0 mm 0.00 W/m2
18:05 3.6 °C 2.4 °C 1002.6 hPa WNW 3.2 km/h 4.8 km/h 92% 0.0 mm 0.00 W/m2
18:10 3.6 °C 2.4 °C 1002.6 hPa WNW 4.7 km/h 6.4 km/h 92% 0.0 mm 0.00 W/m2
18:15 3.6 °C 2.4 °C 1002.6 hPa WNW 9.7 km/h 9.7 km/h 92% 0.0 mm 0.00 W/m2
18:20 3.6 °C 2.4 °C 1002.6 hPa WNW 3.2 km/h 6.4 km/h 92% 0.0 mm 0.00 W/m2
18:26 3.6 °C 2.4 °C 1002.9 hPa WNW 4.7 km/h 6.4 km/h 92% 0.0 mm 0.00 W/m2
18:30 3.6 °C 2.4 °C 1002.9 hPa WNW 3.2 km/h 4.8 km/h 92% 0.0 mm 0.00 W/m2
18:35 3.5 °C 2.3 °C 1002.9 hPa WNW 1.4 km/h 4.8 km/h 92% 0.0 mm 0.00 W/m2
18:40 3.5 °C 2.3 °C 1002.9 hPa WNW 6.4 km/h 8.0 km/h 92% 0.0 mm 0.00 W/m2
18:45 3.6 °C 2.4 °C 1002.9 hPa WNW 3.2 km/h 9.7 km/h 92% 0.0 mm 0.00 W/m2
18:50 3.6 °C 2.4 °C 1002.9 hPa WNW 1.4 km/h 8.0 km/h 92% 0.0 mm 0.00 W/m2
18:55 3.5 °C 2.3 °C 1002.9 hPa WNW 4.7 km/h 8.0 km/h 92% 0.0 mm 0.00 W/m2
19:00 3.4 °C 2.2 °C 1002.9 hPa WNW 3.2 km/h 6.4 km/h 92% 0.0 mm 0.00 W/m2
19:05 3.3 °C 2.1 °C 1002.9 hPa WNW 3.2 km/h 3.2 km/h 92% 0.0 mm 0.00 W/m2
19:10 3.3 °C 2.1 °C 1003.3 hPa WNW 3.2 km/h 6.4 km/h 92% 0.0 mm 0.00 W/m2
19:15 3.3 °C 2.1 °C 1003.3 hPa WNW 3.2 km/h 6.4 km/h 92% 0.0 mm 0.00 W/m2
19:20 3.3 °C 2.1 °C 1003.3 hPa WNW 6.4 km/h 6.4 km/h 92% 0.0 mm 0.00 W/m2
19:25 3.3 °C 2.1 °C 1003.3 hPa WNW 3.2 km/h 6.4 km/h 92% 0.0 mm 0.00 W/m2
19:30 3.3 °C 2.1 °C 1003.3 hPa Calm   1.6 km/h 92% 0.0 mm 0.00 W/m2
19:35 3.3 °C 2.1 °C 1003.3 hPa Calm   1.6 km/h 92% 0.0 mm 0.00 W/m2
19:40 3.2 °C 2.0 °C 1003.3 hPa Calm   1.6 km/h 92% 0.0 mm 0.00 W/m2
19:45 3.1 °C 1.9 °C 1003.3 hPa Calm   9.7 km/h 92% 0.0 mm 0.00 W/m2
19:50 3.1 °C 1.9 °C 1003.3 hPa Calm   1.6 km/h 92% 0.0 mm 0.00 W/m2
19:55 2.9 °C 1.7 °C 1003.6 hPa Calm   9.7 km/h 92% 0.0 mm 0.00 W/m2
20:00 2.7 °C 1.5 °C 1003.6 hPa Calm     92% 0.0 mm 0.00 W/m2
20:05 2.7 °C 1.5 °C 1003.6 hPa Calm     92% 0.0 mm 0.00 W/m2
20:10 2.6 °C 1.4 °C 1003.6 hPa Calm     92% 0.0 mm 0.00 W/m2
20:15 2.5 °C 1.3 °C 1003.6 hPa Calm   1.6 km/h 92% 0.0 mm 0.00 W/m2
20:20 2.4 °C 1.2 °C 1003.6 hPa Calm   1.6 km/h 92% 0.0 mm 0.00 W/m2
20:25 2.3 °C 1.1 °C 1003.6 hPa Calm     92% 0.0 mm 0.00 W/m2
20:30 2.3 °C 1.1 °C 1003.9 hPa Calm   3.2 km/h 92% 0.0 mm 0.00 W/m2
20:35 2.3 °C 1.1 °C 1003.6 hPa Calm     92% 0.0 mm 0.00 W/m2
20:40 2.3 °C 1.1 °C 1003.9 hPa Calm     92% 0.0 mm 0.00 W/m2
20:45 2.3 °C 1.1 °C 1003.9 hPa Calm   3.2 km/h 92% 0.0 mm 0.00 W/m2
20:50 2.3 °C 1.1 °C 1003.6 hPa Calm     92% 0.0 mm 0.00 W/m2
20:55 2.2 °C 1.2 °C 1003.6 hPa Calm     93% 0.0 mm 0.00 W/m2
21:00 2.2 °C 1.2 °C 1003.6 hPa Calm     93% 0.0 mm 0.00 W/m2
21:05 2.1 °C 1.1 °C 1003.6 hPa Calm     93% 0.0 mm 0.00 W/m2
21:10 1.9 °C 0.7 °C 1003.6 hPa Calm     92% 0.0 mm 0.00 W/m2
21:16 1.7 °C 0.5 °C 1003.6 hPa Calm     92% 0.0 mm 0.00 W/m2
21:20 1.7 °C 0.5 °C 1003.6 hPa Calm     92% 0.0 mm 0.00 W/m2
21:25 1.7 °C 0.7 °C 1003.6 hPa Calm     93% 0.0 mm 0.00 W/m2
21:30 1.6 °C 0.6 °C 1003.6 hPa Calm     93% 0.0 mm 0.00 W/m2
21:35 1.5 °C 0.5 °C 1003.6 hPa Calm     93% 0.0 mm 0.00 W/m2
21:40 1.4 °C 0.4 °C 1003.6 hPa Calm     93% 0.0 mm 0.00 W/m2
21:45 1.4 °C 0.4 °C 1003.6 hPa Calm     93% 0.0 mm 0.00 W/m2
21:50 1.4 °C 0.4 °C 1003.6 hPa Calm     93% 0.0 mm 0.00 W/m2
21:55 1.6 °C 0.6 °C 1003.6 hPa Calm     93% 0.0 mm 0.00 W/m2
22:00 1.7 °C 0.7 °C 1003.6 hPa WNW 3.2 km/h 4.8 km/h 93% 0.0 mm 0.00 W/m2
22:05 1.8 °C 0.8 °C 1003.6 hPa Calm   3.2 km/h 93% 0.0 mm 0.00 W/m2
22:10 1.7 °C 0.7 °C 1003.6 hPa Calm     93% 0.0 mm 0.00 W/m2
22:15 1.7 °C 0.7 °C 1003.9 hPa Calm   1.6 km/h 93% 0.0 mm 0.00 W/m2
22:20 1.6 °C 0.6 °C 1003.6 hPa Calm     93% 0.0 mm 0.00 W/m2
22:25 1.6 °C 0.6 °C 1003.6 hPa Calm     93% 0.0 mm 0.00 W/m2
22:30 1.6 °C 0.6 °C 1003.6 hPa Calm     93% 0.0 mm 0.00 W/m2
22:35 1.5 °C 0.5 °C 1003.9 hPa Calm     93% 0.0 mm 0.00 W/m2
22:40 1.5 °C 0.5 °C 1003.6 hPa Calm     93% 0.0 mm 0.00 W/m2
22:45 1.4 °C 0.4 °C 1003.6 hPa Calm     93% 0.0 mm 0.00 W/m2
22:50 1.5 °C 0.5 °C 1003.6 hPa Calm     93% 0.0 mm 0.00 W/m2
22:55 1.5 °C 0.5 °C 1003.6 hPa Calm     93% 0.0 mm 0.00 W/m2
23:00 1.4 °C 0.4 °C 1003.6 hPa Calm     93% 0.0 mm 0.00 W/m2
23:05 1.5 °C 0.5 °C 1003.6 hPa Calm     93% 0.0 mm 0.00 W/m2
23:10 1.4 °C 0.4 °C 1003.6 hPa Calm     93% 0.0 mm 0.00 W/m2
23:15 1.4 °C 0.4 °C 1003.6 hPa Calm     93% 0.0 mm 0.00 W/m2
23:20 1.3 °C 0.3 °C 1003.9 hPa Calm     93% 0.0 mm 0.00 W/m2
23:25 1.2 °C 0.2 °C 1003.9 hPa WNW 4.8 km/h 4.8 km/h 93% 0.0 mm 0.00 W/m2
23:30 1.4 °C 0.5 °C 1003.9 hPa WNW 1.4 km/h 3.2 km/h 94% 0.0 mm 0.00 W/m2
23:35 1.8 °C 0.8 °C 1003.6 hPa WNW 1.4 km/h 8.0 km/h 93% 0.0 mm 0.00 W/m2
23:40 2.1 °C 1.2 °C 1003.6 hPa WNW 1.4 km/h 6.4 km/h 94% 0.0 mm 0.00 W/m2
23:45 2.3 °C 1.4 °C 1003.6 hPa Calm   4.8 km/h 94% 0.0 mm 0.00 W/m2
23:50 2.5 °C 1.6 °C 1003.6 hPa Calm   4.8 km/h 94% 0.0 mm 0.00 W/m2
23:55 2.5 °C 1.6 °C 1003.3 hPa West 1.4 km/h 4.8 km/h 94% 0.0 mm 0.00 W/m2